Terminal Aerodrome Forecast
Issued by NWS Upton, NY

Home | Current Version | Previous Version | Text Only | Print | Product List | Glossary On
Versions: 1 2 3 4 5 6 7 8 9 10 11 12 13 14 15 16 17 18 19 20 21 22 23 24 25 26 27 28 29 30 31 32 33 34 35 36 37 38
907
FTUS41 KOKX 250835 AAA
TAFBDR
TAF AMD
KBDR 250835Z 2509/2606 06012KT P6SM BKN020
     FM251000 06015G22KT 6SM -RA BR SCT007 BKN012
     FM251300 07018G25KT 2SM -RA BR OVC005
     FM252100 07013KT 2SM -SHRA BR OVC004
     FM260100 06010KT 1SM -SHRA BR OVC004=

USA.gov is the U.S. government's official web portal to all federal, state and local government web resources and services.